Time;durP1;ratioP1;P1;durP2;ratioP2;P2;SDS_P1;SDS_P2;PMS_P1;PMS_P2;Temp;Humidity;BMP_temperature;BMP_pressure;BME280_temperature;BME280_humidity;BME280_pressure;Samples;Min_cycle;Max_cycle;Signal;HPM_P1;HPM_P2
2023/08/24 00:01:12;;;;;;;;;;;;;;;21.93;27.96;97951.38;4871382;29;1048;-77
2023/08/24 00:03:37;;;;;;;;;;;;;;;21.95;28.06;97949.69;4907101;29;938;-77
2023/08/24 00:06:03;;;;;;;;;;;;;;;22.20;27.59;97948.97;4922525;29;1907;-78
2023/08/24 00:08:28;;;;;;;;;;;;;;;22.29;27.46;97957.63;4921524;29;946;-77
2023/08/24 00:10:54;;;;;;;;;;;;;;;21.92;28.00;97955.47;4922385;29;924;-77
2023/08/24 00:13:19;;;;;;;;;;;;;;;21.73;28.07;97952.34;4938790;29;905;-77
2023/08/24 00:15:45;;;;;;;;;;;;;;;22.05;27.81;97947.78;4906739;29;953;-77
2023/08/24 00:18:10;;;;;;;;;;;;;;;22.15;27.52;97955.22;4898720;29;974;-77
2023/08/24 00:20:37;;;;;;;;;;;;;;;22.16;27.65;97951.13;4898542;29;976;-76
2023/08/24 00:23:02;;;;;;;;;;;;;;;21.93;27.92;97952.19;4852452;29;1161;-77
2023/08/24 00:25:28;;;;;;;;;;;;;;;22.06;27.62;97949.38;4867592;29;1972;-76
2023/08/24 00:27:54;;;;;;;;;;;;;;;22.01;27.59;97947.09;4867584;29;1311;-77
2023/08/24 00:30:19;;;;;;;;;;;;;;;21.78;28.04;97951.00;4883649;29;1073;-77
2023/08/24 00:32:45;;;;;;;;;;;;;;;21.89;27.93;97950.69;4883135;29;1149;-77
2023/08/24 00:35:11;;;;;;;;;;;;;;;22.22;27.35;97957.81;4898618;29;920;-78
2023/08/24 00:37:37;;;;;;;;;;;;;;;21.77;28.08;97953.03;4882960;29;1042;-76
2023/08/24 00:40:04;;;;;;;;;;;;;;;21.73;28.21;97955.16;4867403;29;1194;-77
2023/08/24 00:42:31;;;;;;;;;;;;;;;21.93;27.87;97957.06;4883342;29;892;-77
2023/08/24 00:44:57;;;;;;;;;;;;;;;21.96;28.20;97956.13;4883029;29;1899;-77
2023/08/24 00:47:23;;;;;;;;;;;;;;;21.83;28.25;97954.06;4883850;29;1254;-77
2023/08/24 00:49:49;;;;;;;;;;;;;;;21.98;28.07;97954.47;4900298;29;1221;-77
2023/08/24 00:52:14;;;;;;;;;;;;;;;21.92;28.20;97950.59;4957902;29;917;-77
2023/08/24 00:54:40;;;;;;;;;;;;;;;21.97;27.85;97955.72;4940724;29;1270;-78
2023/08/24 00:57:06;;;;;;;;;;;;;;;22.18;27.86;97957.16;4901440;29;1196;-77
2023/08/24 00:59:32;;;;;;;;;;;;;;;21.98;27.80;97953.66;4901640;29;992;-77
2023/08/24 01:01:57;;;;;;;;;;;;;;;22.06;28.04;97938.03;4901782;29;997;-77
2023/08/24 01:04:23;;;;;;;;;;;;;;;21.88;28.24;97943.44;4901574;29;953;-77
2023/08/24 01:06:48;;;;;;;;;;;;;;;22.01;27.89;97941.41;4901242;29;1943;-77
2023/08/24 01:09:14;;;;;;;;;;;;;;;21.98;28.00;97936.66;4901668;29;977;-77
2023/08/24 01:11:56;;;;;;;;;;;;;;;21.87;28.20;97933.34;4917064;29;922;-77
2023/08/24 01:14:35;;;;;;;;;;;;;;;21.82;28.10;97935.50;4901110;29;1106;-77
2023/08/24 01:17:01;;;;;;;;;;;;;;;21.95;28.22;97934.72;4901123;29;1055;-77
2023/08/24 01:19:35;;;;;;;;;;;;;;;21.65;28.72;97933.94;4865102;29;1181;-77
2023/08/24 01:22:02;;;;;;;;;;;;;;;21.83;28.09;97931.41;4852453;29;1459;-78
2023/08/24 01:24:35;;;;;;;;;;;;;;;21.99;28.03;97933.38;4867399;29;1059;-78
2023/08/24 01:27:00;;;;;;;;;;;;;;;21.80;28.13;97926.63;4867354;29;1923;-77
2023/08/24 01:29:26;;;;;;;;;;;;;;;21.68;28.51;97918.91;4867585;29;1214;-77
2023/08/24 01:31:51;;;;;;;;;;;;;;;22.10;27.80;97914.03;4867882;29;999;-77
2023/08/24 01:34:17;;;;;;;;;;;;;;;22.05;27.75;97913.78;4874655;29;990;-77
2023/08/24 01:36:43;;;;;;;;;;;;;;;22.24;27.73;97907.16;4901543;29;971;-77
2023/08/24 01:39:12;;;;;;;;;;;;;;;21.63;28.18;97879.81;4902200;29;1227;-77
2023/08/24 01:41:42;;;;;;;;;;;;;;;21.88;28.36;97915.13;4902023;29;976;-77
2023/08/24 01:44:09;;;;;;;;;;;;;;;22.11;27.86;97917.66;4885762;29;1354;-77
2023/08/24 01:46:35;;;;;;;;;;;;;;;22.11;27.68;97906.34;4894688;29;1911;-76
2023/08/24 01:49:00;;;;;;;;;;;;;;;21.84;28.01;97904.66;4870370;29;1261;-77
2023/08/24 01:51:25;;;;;;;;;;;;;;;22.21;27.63;97904.44;4938304;29;896;-77
2023/08/24 01:53:51;;;;;;;;;;;;;;;22.12;27.67;97902.25;4908800;29;1239;-77
2023/08/24 01:56:17;;;;;;;;;;;;;;;21.90;28.00;97907.75;4908939;29;1137;-77
2023/08/24 01:58:42;;;;;;;;;;;;;;;22.19;27.51;97907.72;4908840;29;1359;-77
2023/08/24 02:01:08;;;;;;;;;;;;;;;21.93;27.96;97906.06;4908856;29;1442;-78
2023/08/24 02:03:34;;;;;;;;;;;;;;;21.91;28.17;97902.88;4901157;29;1062;-77
2023/08/24 02:06:00;;;;;;;;;;;;;;;22.02;27.90;97897.66;4885821;29;1987;-76
2023/08/24 02:08:25;;;;;;;;;;;;;;;21.76;28.29;97902.47;4870170;29;1290;-77
2023/08/24 02:10:51;;;;;;;;;;;;;;;21.73;28.06;97892.84;4866655;29;1281;-77
2023/08/24 02:13:16;;;;;;;;;;;;;;;21.66;28.44;97895.91;4851379;29;1638;-77
2023/08/24 02:15:42;;;;;;;;;;;;;;;21.99;27.93;97895.75;4835951;29;1328;-78
2023/08/24 02:18:07;;;;;;;;;;;;;;;21.86;28.03;97895.72;4851459;29;1216;-77
2023/08/24 02:20:36;;;;;;;;;;;;;;;21.76;27.99;97903.31;4866632;29;1122;-78
2023/08/24 02:23:03;;;;;;;;;;;;;;;22.04;27.77;97900.88;4851180;29;1071;-77
2023/08/24 02:25:28;;;;;;;;;;;;;;;22.10;27.55;97904.72;4866775;29;1980;-77
2023/08/24 02:27:54;;;;;;;;;;;;;;;21.77;28.23;97902.06;4835704;29;1568;-77
2023/08/24 02:30:20;;;;;;;;;;;;;;;21.85;27.84;97906.25;4850990;29;1078;-77
2023/08/24 02:32:45;;;;;;;;;;;;;;;21.79;28.14;97905.22;4866077;29;992;-77
2023/08/24 02:35:11;;;;;;;;;;;;;;;21.68;28.24;97907.56;4894901;29;992;-77
2023/08/24 02:37:36;;;;;;;;;;;;;;;21.85;28.16;97906.25;4919330;29;976;-77
2023/08/24 02:40:03;;;;;;;;;;;;;;;21.78;27.98;97911.34;4903997;29;955;-77
2023/08/24 02:42:32;;;;;;;;;;;;;;;21.84;27.97;97909.53;4891774;29;993;-77
2023/08/24 02:44:58;;;;;;;;;;;;;;;21.87;27.88;97907.88;4908153;29;1914;-77
2023/08/24 02:47:24;;;;;;;;;;;;;;;21.94;28.06;97907.66;4940168;29;1915;-77
2023/08/24 02:49:49;;;;;;;;;;;;;;;22.01;27.88;97901.75;4942632;29;1182;-77
2023/08/24 02:52:16;;;;;;;;;;;;;;;22.03;27.76;97899.28;4926991;29;1074;-77
2023/08/24 02:54:42;;;;;;;;;;;;;;;21.81;28.05;97899.09;4942582;29;905;-77
2023/08/24 02:57:07;;;;;;;;;;;;;;;21.92;27.74;97898.81;4926776;29;1468;-77
2023/08/24 02:59:33;;;;;;;;;;;;;;;21.94;27.88;97897.09;4926857;29;1324;-77
2023/08/24 03:01:58;;;;;;;;;;;;;;;22.10;27.51;97894.22;4959556;29;1146;-77
2023/08/24 03:04:24;;;;;;;;;;;;;;;21.96;27.74;97905.16;4942352;29;1125;-77
2023/08/24 03:06:51;;;;;;;;;;;;;;;22.14;27.36;97896.94;4942246;29;1922;-77
2023/08/24 03:09:18;;;;;;;;;;;;;;;22.02;27.76;97898.50;4942314;29;1372;-77
2023/08/24 03:11:44;;;;;;;;;;;;;;;21.94;27.83;97908.44;4899825;29;1210;-76
2023/08/24 03:14:10;;;;;;;;;;;;;;;21.98;27.83;97902.69;4884375;29;1659;-76
2023/08/24 03:16:39;;;;;;;;;;;;;;;21.68;28.27;97913.22;4884046;29;1238;-77
2023/08/24 03:19:05;;;;;;;;;;;;;;;21.57;28.55;97912.75;4899867;29;1239;-78
2023/08/24 03:21:31;;;;;;;;;;;;;;;21.79;27.92;97913.72;4899695;29;1337;-77
2023/08/24 03:23:57;;;;;;;;;;;;;;;21.86;28.05;97907.03;4899746;29;1138;-77
2023/08/24 03:26:23;;;;;;;;;;;;;;;21.61;28.29;97913.44;4899585;29;1986;-77
2023/08/24 03:28:49;;;;;;;;;;;;;;;21.76;27.96;97908.97;4877602;29;1007;-77
2023/08/24 03:31:14;;;;;;;;;;;;;;;21.95;27.91;97914.91;4846768;29;988;-77
2023/08/24 03:33:40;;;;;;;;;;;;;;;21.81;28.13;97911.25;4846787;29;980;-77
2023/08/24 03:36:06;;;;;;;;;;;;;;;21.90;27.89;97907.75;4862410;29;1088;-77
2023/08/24 03:38:32;;;;;;;;;;;;;;;22.09;27.36;97908.81;4861945;29;983;-77
2023/08/24 03:41:03;;;;;;;;;;;;;;;21.92;27.78;97908.09;4862049;29;997;-77
2023/08/24 03:43:33;;;;;;;;;;;;;;;21.89;27.88;97917.50;4892112;29;1042;-77
2023/08/24 03:45:58;;;;;;;;;;;;;;;22.18;27.45;97922.34;4876972;29;1985;-77
2023/08/24 03:48:24;;;;;;;;;;;;;;;22.15;27.56;97917.56;4880609;29;1103;-77
2023/08/24 03:50:49;;;;;;;;;;;;;;;21.92;27.82;97910.16;4895978;29;1017;-77
2023/08/24 03:53:15;;;;;;;;;;;;;;;21.65;28.33;97902.78;4880501;29;1126;-77
2023/08/24 03:55:41;;;;;;;;;;;;;;;21.49;28.45;97911.34;4880704;29;1134;-77
2023/08/24 03:58:06;;;;;;;;;;;;;;;21.83;28.11;97908.75;4880403;29;1292;-77
2023/08/24 04:00:32;;;;;;;;;;;;;;;21.75;28.04;97910.19;4880637;29;985;-78
2023/08/24 04:02:59;;;;;;;;;;;;;;;21.79;28.16;97912.94;4864800;29;1568;-77
2023/08/24 04:05:26;;;;;;;;;;;;;;;21.88;28.16;97910.25;4867814;29;1984;-78
2023/08/24 04:07:52;;;;;;;;;;;;;;;21.81;27.91;97916.09;4867912;29;1276;-77
2023/08/24 04:10:17;;;;;;;;;;;;;;;21.76;28.28;97908.97;4883448;29;1099;-77
2023/08/24 04:12:43;;;;;;;;;;;;;;;21.80;28.29;97915.31;4868109;29;1246;-77
2023/08/24 04:15:09;;;;;;;;;;;;;;;21.74;28.26;97913.47;4867915;29;1265;-77
2023/08/24 04:17:34;;;;;;;;;;;;;;;22.00;27.96;97917.16;4891294;29;1430;-77
2023/08/24 04:20:00;;;;;;;;;;;;;;;21.95;28.12;97909.22;4902207;29;1030;-77
2023/08/24 04:22:25;;;;;;;;;;;;;;;21.70;28.42;97910.72;4901978;29;1534;-77
2023/08/24 04:24:51;;;;;;;;;;;;;;;21.74;28.41;97916.31;4936065;29;1611;-77
2023/08/24 04:27:17;;;;;;;;;;;;;;;21.89;28.08;97922.38;4936720;29;1981;-78
2023/08/24 04:29:42;;;;;;;;;;;;;;;21.96;27.90;97919.31;4936859;29;1064;-77
2023/08/24 04:32:08;;;;;;;;;;;;;;;22.09;27.88;97920.94;4936488;29;984;-78
2023/08/24 04:34:33;;;;;;;;;;;;;;;21.89;28.30;97922.38;4936874;29;1097;-77
2023/08/24 04:37:01;;;;;;;;;;;;;;;21.89;28.15;97925.19;4936379;29;946;-77
2023/08/24 04:39:26;;;;;;;;;;;;;;;22.05;27.90;97925.13;4920613;29;995;-77
2023/08/24 04:41:52;;;;;;;;;;;;;;;21.90;28.20;97923.94;4936555;29;1104;-76
2023/08/24 04:44:17;;;;;;;;;;;;;;;21.84;28.22;97930.16;4936334;29;958;-77
2023/08/24 04:46:43;;;;;;;;;;;;;;;21.72;28.25;97879.94;4936121;29;1906;-77
2023/08/24 04:49:09;;;;;;;;;;;;;;;21.82;28.11;97921.31;4936204;29;1158;-77
2023/08/24 04:51:35;;;;;;;;;;;;;;;22.02;28.12;97918.31;4920774;29;1080;-78
2023/08/24 04:54:00;;;;;;;;;;;;;;;22.10;27.95;97921.72;4953378;28;1073;-78
2023/08/24 04:56:26;;;;;;;;;;;;;;;21.66;28.52;97923.41;4947396;29;1185;-77
2023/08/24 04:58:56;;;;;;;;;;;;;;;21.94;27.97;97930.31;4947300;29;1233;-77
2023/08/24 05:01:22;;;;;;;;;;;;;;;21.89;28.35;97933.69;4963393;29;979;-77
2023/08/24 05:03:48;;;;;;;;;;;;;;;21.65;28.52;97925.44;4963390;28;929;-78
2023/08/24 05:06:14;;;;;;;;;;;;;;;21.92;28.15;97929.97;4942367;29;1906;-77
2023/08/24 05:08:39;;;;;;;;;;;;;;;22.00;28.19;97926.47;4943033;29;954;-78
2023/08/24 05:11:14;;;;;;;;;;;;;;;21.91;28.36;97931.19;4942563;29;1021;-77
2023/08/24 05:13:40;;;;;;;;;;;;;;;21.99;28.22;97932.59;4942776;29;986;-77
2023/08/24 05:16:06;;;;;;;;;;;;;;;22.03;28.30;97933.28;4942648;29;1061;-77
2023/08/24 05:18:31;;;;;;;;;;;;;;;22.09;27.99;97935.09;4942460;29;1026;-77
2023/08/24 05:20:57;;;;;;;;;;;;;;;21.82;28.69;97940.38;4942343;29;1087;-78
2023/08/24 05:23:22;;;;;;;;;;;;;;;21.82;28.44;97929.81;4942222;29;1240;-77
2023/08/24 05:25:48;;;;;;;;;;;;;;;21.75;28.78;97935.69;4949967;29;2269;-77
2023/08/24 05:28:14;;;;;;;;;;;;;;;22.02;28.26;97943.00;4961698;29;947;-77
2023/08/24 05:30:39;;;;;;;;;;;;;;;22.02;28.48;97940.16;4961944;29;996;-77
2023/08/24 05:33:05;;;;;;;;;;;;;;;21.51;29.21;97945.69;4961574;28;982;-77
2023/08/24 05:35:30;;;;;;;;;;;;;;;21.64;29.04;97946.50;4961391;29;1013;-77
2023/08/24 05:37:56;;;;;;;;;;;;;;;21.81;28.67;97956.56;4978244;28;1643;-77
2023/08/24 05:40:21;;;;;;;;;;;;;;;21.94;28.33;97952.97;4980344;28;1106;-77
2023/08/24 05:42:47;;;;;;;;;;;;;;;22.22;28.11;97957.81;4983197;28;974;-77
2023/08/24 05:45:12;;;;;;;;;;;;;;;22.10;28.27;97947.22;4965980;28;1989;-78
2023/08/24 05:47:38;;;;;;;;;;;;;;;21.71;28.89;97951.16;4964437;28;1206;-78
2023/08/24 05:50:03;;;;;;;;;;;;;;;21.70;28.94;97956.03;4980777;28;1139;-77
2023/08/24 05:52:29;;;;;;;;;;;;;;;22.05;28.28;97950.63;4968567;28;1003;-77
2023/08/24 05:54:54;;;;;;;;;;;;;;;21.99;28.33;97949.59;4980630;28;1111;-77
2023/08/24 05:57:20;;;;;;;;;;;;;;;22.19;28.21;97953.06;4964493;28;999;-77
2023/08/24 05:59:45;;;;;;;;;;;;;;;22.23;27.87;97953.75;4964278;28;1031;-76
2023/08/24 06:02:11;;;;;;;;;;;;;;;22.26;28.06;97963.38;4980796;28;1017;-78
2023/08/24 06:04:36;;;;;;;;;;;;;;;22.01;28.46;97953.53;4964273;28;1083;-77
2023/08/24 06:07:04;;;;;;;;;;;;;;;21.88;28.87;97961.22;4977816;28;1918;-76
2023/08/24 06:09:30;;;;;;;;;;;;;;;21.93;28.83;97963.50;4945989;28;1093;-77
2023/08/24 06:11:55;;;;;;;;;;;;;;;21.88;29.03;97954.78;4929530;28;1210;-77
2023/08/24 06:14:21;;;;;;;;;;;;;;;21.87;28.65;97958.84;4945628;28;884;-77
2023/08/24 06:16:48;;;;;;;;;;;;;;;21.95;28.66;97961.00;4961279;28;1113;-78
2023/08/24 06:19:14;;;;;;;;;;;;;;;22.12;28.29;97964.59;4946277;28;950;-76
2023/08/24 06:21:39;;;;;;;;;;;;;;;22.24;28.20;97966.69;4946000;28;1095;-77
2023/08/24 06:24:05;;;;;;;;;;;;;;;22.12;28.65;97961.75;4962137;28;1008;-77
2023/08/24 06:26:30;;;;;;;;;;;;;;;21.84;29.05;97961.31;4962618;28;1906;-78
2023/08/24 06:28:56;;;;;;;;;;;;;;;21.88;28.97;97966.09;4979834;28;1121;-77
2023/08/24 06:31:21;;;;;;;;;;;;;;;22.03;28.67;97967.28;4962563;28;998;-77
2023/08/24 06:33:47;;;;;;;;;;;;;;;21.77;29.00;97972.84;4944851;28;937;-77
2023/08/24 06:36:12;;;;;;;;;;;;;;;22.04;28.83;97969.66;4946613;28;963;-78
2023/08/24 06:38:38;;;;;;;;;;;;;;;21.95;28.99;97965.88;4960805;28;1049;-76
2023/08/24 06:41:04;;;;;;;;;;;;;;;21.84;29.25;97966.19;4962083;28;905;-77
2023/08/24 06:43:29;;;;;;;;;;;;;;;22.18;28.40;97971.31;4979466;28;1054;-77
2023/08/24 06:45:55;;;;;;;;;;;;;;;22.09;28.75;97977.59;4906507;29;1911;-77
2023/08/24 06:48:20;;;;;;;;;;;;;;;22.04;28.92;97964.00;4938135;29;936;-76
2023/08/24 06:50:46;;;;;;;;;;;;;;;22.12;28.80;97966.63;4938375;29;1068;-77
2023/08/24 06:53:11;;;;;;;;;;;;;;;22.31;28.35;97972.13;4938524;29;1001;-78
2023/08/24 06:55:37;;;;;;;;;;;;;;;22.14;28.73;97967.78;4906455;29;1241;-77
2023/08/24 06:58:05;;;;;;;;;;;;;;;22.21;28.50;97966.78;4903072;29;1600;-77
2023/08/24 07:00:30;;;;;;;;;;;;;;;21.91;28.95;97970.84;4903870;29;1563;-77
2023/08/24 07:02:56;;;;;;;;;;;;;;;22.10;28.83;97973.56;4899682;29;1337;-77
2023/08/24 07:05:21;;;;;;;;;;;;;;;22.07;28.76;97973.63;4894395;29;1911;-76
2023/08/24 07:07:47;;;;;;;;;;;;;;;22.16;28.81;97976.63;4885364;29;1593;-76
2023/08/24 07:10:13;;;;;;;;;;;;;;;21.99;28.85;97983.59;4897292;29;1554;-78
2023/08/24 07:12:41;;;;;;;;;;;;;;;22.19;28.66;97981.41;4894758;29;1584;-77
2023/08/24 07:15:07;;;;;;;;;;;;;;;22.32;28.33;97982.22;4901366;29;1550;-77
2023/08/24 07:17:33;;;;;;;;;;;;;;;21.97;29.07;97991.75;4918332;29;1029;-75
2023/08/24 07:19:59;;;;;;;;;;;;;;;22.12;28.92;97981.59;4900077;29;1630;-77
2023/08/24 07:22:26;;;;;;;;;;;;;;;22.14;29.07;97992.50;4891167;29;1549;-77
2023/08/24 07:24:52;;;;;;;;;;;;;;;22.19;28.85;97987.06;4937816;29;1133;-77
2023/08/24 07:27:18;;;;;;;;;;;;;;;22.30;28.69;97987.56;4884063;29;2038;-77
2023/08/24 07:29:43;;;;;;;;;;;;;;;22.25;28.79;97987.31;4899521;29;981;-77
2023/08/24 07:32:09;;;;;;;;;;;;;;;22.03;29.11;97984.28;4899733;29;940;-76
2023/08/24 07:34:34;;;;;;;;;;;;;;;21.93;29.19;97996.72;4899475;29;1211;-77
2023/08/24 07:37:00;;;;;;;;;;;;;;;21.95;29.38;97997.03;4899779;29;1045;-77
2023/08/24 07:39:25;;;;;;;;;;;;;;;22.37;28.84;97997.88;4864331;29;1417;-76
2023/08/24 07:41:51;;;;;;;;;;;;;;;22.42;28.50;97996.53;4865396;29;1110;-77
2023/08/24 07:44:17;;;;;;;;;;;;;;;22.41;28.59;97989.28;4880591;29;941;-77
2023/08/24 07:46:42;;;;;;;;;;;;;;;22.43;28.71;97983.94;4854264;29;1970;-78
2023/08/24 07:49:08;;;;;;;;;;;;;;;22.34;28.73;97985.41;4862272;29;1059;-76
2023/08/24 07:51:33;;;;;;;;;;;;;;;22.22;29.18;97986.16;4862033;29;1051;-77
2023/08/24 07:53:59;;;;;;;;;;;;;;;22.59;28.59;97981.03;4862189;29;968;-78
2023/08/24 07:56:25;;;;;;;;;;;;;;;22.60;28.53;97993.97;4862124;29;1031;-78
2023/08/24 07:58:50;;;;;;;;;;;;;;;22.49;28.89;97994.28;4889250;29;955;-77
2023/08/24 08:01:16;;;;;;;;;;;;;;;22.07;29.18;97991.44;4899488;29;970;-77
2023/08/24 08:03:41;;;;;;;;;;;;;;;22.14;29.24;97984.78;4899358;29;992;-77
2023/08/24 08:06:07;;;;;;;;;;;;;;;22.25;29.29;97990.16;4898741;29;1992;-78
2023/08/24 08:08:32;;;;;;;;;;;;;;;21.95;29.66;97980.84;4898941;29;1027;-77
2023/08/24 08:10:59;;;;;;;;;;;;;;;22.10;29.41;97984.88;4895130;29;1061;-77
2023/08/24 08:13:25;;;;;;;;;;;;;;;22.47;28.63;97985.41;4922214;29;1316;-77
2023/08/24 08:15:50;;;;;;;;;;;;;;;22.34;29.01;97982.56;4922073;29;1079;-77
2023/08/24 08:18:16;;;;;;;;;;;;;;;22.62;28.50;97983.75;4909393;29;1999;-77
2023/08/24 08:20:42;;;;;;;;;;;;;;;22.29;28.90;97985.19;4941057;29;924;-77
2023/08/24 08:23:07;;;;;;;;;;;;;;;22.35;29.10;97978.50;4937109;29;1935;-77
2023/08/24 08:25:33;;;;;;;;;;;;;;;22.01;29.52;97978.25;4938874;29;1984;-77
2023/08/24 08:27:58;;;;;;;;;;;;;;;22.11;29.52;97980.00;4924200;28;1982;-77
2023/08/24 08:30:24;;;;;;;;;;;;;;;22.29;28.89;97968.97;4936560;29;1811;-77
2023/08/24 08:32:50;;;;;;;;;;;;;;;22.28;28.98;97973.03;4920309;29;1854;-77
2023/08/24 08:35:17;;;;;;;;;;;;;;;22.52;28.60;97976.34;4940518;29;1619;-77
2023/08/24 08:37:42;;;;;;;;;;;;;;;22.46;29.00;97971.69;4940077;29;1483;-78
2023/08/24 08:40:09;;;;;;;;;;;;;;;22.22;29.04;97980.50;4940199;29;1337;-77
2023/08/24 08:42:35;;;;;;;;;;;;;;;22.02;29.78;97971.34;4917202;29;1632;-77
2023/08/24 08:45:02;;;;;;;;;;;;;;;22.17;29.16;97978.22;4919610;29;1433;-76
2023/08/24 08:47:28;;;;;;;;;;;;;;;22.02;29.54;97979.84;4917843;29;1911;-77
2023/08/24 08:49:54;;;;;;;;;;;;;;;22.25;29.04;97979.59;4936466;29;1021;-77
2023/08/24 08:52:19;;;;;;;;;;;;;;;22.37;29.03;97978.03;4920826;29;1549;-77
2023/08/24 08:54:45;;;;;;;;;;;;;;;22.21;29.16;97978.91;4936479;29;1055;-76
2023/08/24 08:57:10;;;;;;;;;;;;;;;22.36;29.36;97979.28;4934684;29;1670;-77
2023/08/24 08:59:36;;;;;;;;;;;;;;;22.15;29.53;97986.38;4917778;29;1533;-77
2023/08/24 09:02:02;;;;;;;;;;;;;;;22.27;29.08;97982.78;4920160;29;976;-77
2023/08/24 09:04:29;;;;;;;;;;;;;;;22.26;29.30;97981.19;4935876;29;1505;-77
2023/08/24 09:06:56;;;;;;;;;;;;;;;22.21;29.41;97978.91;4951808;29;1971;-77
2023/08/24 09:09:22;;;;;;;;;;;;;;;22.21;29.19;97990.25;4935261;29;1819;-76
2023/08/24 09:11:48;;;;;;;;;;;;;;;21.76;30.30;97982.59;4936270;29;1098;-77
2023/08/24 09:14:14;;;;;;;;;;;;;;;22.08;29.50;97980.91;4944636;29;1458;-77
2023/08/24 09:16:39;;;;;;;;;;;;;;;22.03;29.75;97978.63;4924528;29;1499;-76
2023/08/24 09:19:05;;;;;;;;;;;;;;;22.44;29.20;97988.38;4925492;29;1456;-78
2023/08/24 09:21:30;;;;;;;;;;;;;;;22.35;29.18;97989.03;4941464;29;948;-78
2023/08/24 09:23:56;;;;;;;;;;;;;;;22.60;28.77;97982.63;4958265;29;923;-78
2023/08/24 09:26:31;;;;;;;;;;;;;;;22.42;29.00;97983.16;4940609;29;1911;-78
2023/08/24 09:28:57;;;;;;;;;;;;;;;22.10;29.50;97984.06;4938985;29;1612;-78
2023/08/24 09:31:23;;;;;;;;;;;;;;;22.15;29.65;97983.53;4930951;29;1803;-78
2023/08/24 09:33:48;;;;;;;;;;;;;;;22.38;29.25;97976.00;4925330;29;1777;-78
2023/08/24 09:36:14;;;;;;;;;;;;;;;22.32;29.27;97990.72;4936924;29;990;-77
2023/08/24 09:38:45;;;;;;;;;;;;;;;22.09;29.55;97977.59;4920519;29;974;-78
2023/08/24 09:41:11;;;;;;;;;;;;;;;21.83;29.84;97979.56;4907174;29;1374;-77
2023/08/24 09:43:36;;;;;;;;;;;;;;;22.25;29.47;97971.09;4924037;29;974;-78
2023/08/24 09:46:04;;;;;;;;;;;;;;;22.42;29.14;97971.00;4923947;29;1914;-78
2023/08/24 09:48:29;;;;;;;;;;;;;;;22.18;29.40;97979.03;4923877;29;1058;-77
2023/08/24 09:50:55;;;;;;;;;;;;;;;22.19;29.54;97972.91;4924311;29;1433;-78
2023/08/24 09:53:22;;;;;;;;;;;;;;;22.33;29.21;97969.66;4924171;29;957;-78
2023/08/24 09:55:57;;;;;;;;;;;;;;;22.21;29.49;97969.63;4923653;29;1130;-77
2023/08/24 09:58:22;;;;;;;;;;;;;;;22.09;29.56;97969.09;4882666;29;1507;-77
2023/08/24 10:00:48;;;;;;;;;;;;;;;22.30;29.58;97964.88;4899202;29;1320;-78
2023/08/24 10:03:16;;;;;;;;;;;;;;;22.30;29.52;97970.53;4901702;29;1535;-78
2023/08/24 10:05:41;;;;;;;;;;;;;;;22.51;29.25;97968.31;4886605;29;1907;-78
2023/08/24 10:08:08;;;;;;;;;;;;;;;22.31;29.22;97977.00;4885889;29;1602;-78
2023/08/24 10:10:34;;;;;;;;;;;;;;;22.02;29.80;97960.00;4886500;29;1003;-78
2023/08/24 10:13:00;;;;;;;;;;;;;;;22.35;29.59;97972.81;4882481;29;941;-78
2023/08/24 10:15:26;;;;;;;;;;;;;;;22.26;29.41;97974.72;4863982;29;1026;-78
2023/08/24 10:17:52;;;;;;;;;;;;;;;22.18;29.91;97968.50;4864615;29;1608;-78
2023/08/24 10:20:18;;;;;;;;;;;;;;;22.28;29.75;97963.75;4880338;29;875;-78
2023/08/24 10:22:43;;;;;;;;;;;;;;;22.39;29.53;97966.25;4879808;29;958;-78
2023/08/24 10:25:09;;;;;;;;;;;;;;;22.25;29.82;97970.31;4892069;29;1379;-78
2023/08/24 10:27:34;;;;;;;;;;;;;;;22.21;29.84;97961.91;4882618;29;1915;-78
2023/08/24 10:30:00;;;;;;;;;;;;;;;22.26;29.90;97963.38;4912338;29;940;-78
2023/08/24 10:32:26;;;;;;;;;;;;;;;22.46;29.21;97966.03;4904489;29;1565;-77
2023/08/24 10:34:51;;;;;;;;;;;;;;;22.22;29.85;97963.50;4919751;29;1600;-77
2023/08/24 10:37:17;;;;;;;;;;;;;;;22.34;29.46;97965.56;4904341;29;1632;-78
2023/08/24 10:39:45;;;;;;;;;;;;;;;22.32;29.46;97962.38;4904650;29;1596;-78
2023/08/24 10:42:11;;;;;;;;;;;;;;;22.35;29.73;97970.00;4904297;29;916;-78
2023/08/24 10:44:37;;;;;;;;;;;;;;;22.50;29.31;97961.06;4934099;29;1521;-78
2023/08/24 10:47:06;;;;;;;;;;;;;;;22.12;29.87;97964.59;4972653;28;1903;-78
2023/08/24 10:49:32;;;;;;;;;;;;;;;22.53;29.16;97960.13;4979547;28;1638;-77
2023/08/24 10:51:57;;;;;;;;;;;;;;;22.56;29.29;97959.25;4978642;28;1679;-79
2023/08/24 10:54:32;;;;;;;;;;;;;;;22.33;29.58;97951.84;4978773;28;1207;-80
2023/08/24 10:56:58;;;;;;;;;;;;;;;22.43;29.62;97952.75;4965677;28;1554;-79
2023/08/24 10:59:24;;;;;;;;;;;;;;;22.13;30.10;97954.09;4962045;28;1667;-78
2023/08/24 11:01:52;;;;;;;;;;;;;;;22.36;29.85;97946.06;4962435;28;1405;-78
2023/08/24 11:04:18;;;;;;;;;;;;;;;22.19;30.10;97936.06;4962321;28;1302;-78
2023/08/24 11:07:02;;;;;;;;;;;;;;;22.32;29.66;97930.41;4959412;28;1967;-78
2023/08/24 11:09:44;;;;;;;;;;;;;;;22.61;29.35;97927.47;4978730;28;1242;-78
2023/08/24 11:12:10;;;;;;;;;;;;;;;22.65;29.16;97928.16;4962485;28;1018;-78
2023/08/24 11:14:36;;;;;;;;;;;;;;;22.60;29.33;97951.41;4962326;28;931;-78
2023/08/24 11:17:17;;;;;;;;;;;;;;;22.42;29.58;97943.47;4976204;28;984;-78
2023/08/24 11:19:49;;;;;;;;;;;;;;;22.45;29.40;97938.94;4961987;28;1066;-78
2023/08/24 11:22:14;;;;;;;;;;;;;;;22.56;29.29;97936.56;4961844;28;1045;-78
2023/08/24 11:24:40;;;;;;;;;;;;;;;22.51;29.24;97943.59;4957364;29;1045;-78
2023/08/24 11:27:05;;;;;;;;;;;;;;;22.18;29.78;97939.34;4941556;29;1883;-78
2023/08/24 11:29:31;;;;;;;;;;;;;;;22.25;29.72;97934.25;4957607;29;930;-78
2023/08/24 11:31:57;;;;;;;;;;;;;;;21.93;30.10;97920.22;4957249;29;899;-78
2023/08/24 11:34:23;;;;;;;;;;;;;;;22.15;29.82;97918.38;4941312;29;896;-78
2023/08/24 11:36:48;;;;;;;;;;;;;;;22.32;29.48;97917.03;4957536;29;1060;-78
2023/08/24 11:39:16;;;;;;;;;;;;;;;22.22;29.42;97900.34;4957426;29;916;-78
2023/08/24 11:41:42;;;;;;;;;;;;;;;22.09;29.79;97891.81;4941164;29;877;-78
2023/08/24 11:44:07;;;;;;;;;;;;;;;22.08;29.91;97893.06;4957391;29;1011;-78
2023/08/24 11:46:33;;;;;;;;;;;;;;;22.33;29.16;97895.94;4931070;29;2005;-78
2023/08/24 11:48:59;;;;;;;;;;;;;;;22.42;28.98;97885.97;4881046;29;1487;-79
2023/08/24 11:51:24;;;;;;;;;;;;;;;22.42;29.16;97880.28;4865824;29;1111;-79
2023/08/24 11:53:50;;;;;;;;;;;;;;;22.52;28.98;97879.16;4880750;29;1072;-79
2023/08/24 11:56:18;;;;;;;;;;;;;;;22.55;28.79;97878.25;4895334;29;951;-78
2023/08/24 11:58:47;;;;;;;;;;;;;;;22.49;28.59;97885.75;4899956;29;885;-78
2023/08/24 12:01:12;;;;;;;;;;;;;;;22.25;29.00;97874.75;4884347;29;1257;-78
2023/08/24 12:03:38;;;;;;;;;;;;;;;22.36;28.93;97877.22;4883886;29;922;-79
2023/08/24 12:06:23;;;;;;;;;;;;;;;22.05;29.21;97876.94;4899695;29;1899;-78
2023/08/24 12:08:50;;;;;;;;;;;;;;;22.29;29.09;97881.09;4899072;29;1419;-78
2023/08/24 12:11:19;;;;;;;;;;;;;;;22.06;29.55;97875.69;4899578;29;1562;-78
2023/08/24 12:13:52;;;;;;;;;;;;;;;22.14;29.35;97882.78;4888749;29;1788;-78
2023/08/24 12:16:18;;;;;;;;;;;;;;;22.68;30.48;97875.41;4883835;29;1834;-78
2023/08/24 12:18:47;;;;;;;;;;;;;;;22.85;30.94;97872.00;4899584;29;940;-78
2023/08/24 12:21:13;;;;;;;;;;;;;;;22.05;32.34;97869.25;4883908;29;842;-77
2023/08/24 12:23:38;;;;;;;;;;;;;;;21.61;32.49;97865.31;4899572;29;962;-78
2023/08/24 12:26:07;;;;;;;;;;;;;;;21.35;32.42;97866.44;4921159;29;1899;-78
2023/08/24 12:28:33;;;;;;;;;;;;;;;21.60;31.92;97877.84;4942035;29;1038;-77
2023/08/24 12:31:01;;;;;;;;;;;;;;;22.03;30.80;97882.28;4941555;29;927;-78
2023/08/24 12:33:27;;;;;;;;;;;;;;;21.78;31.01;97872.47;4958566;29;1183;-78
2023/08/24 12:35:53;;;;;;;;;;;;;;;22.22;30.29;97878.47;4941831;29;991;-78
2023/08/24 12:38:19;;;;;;;;;;;;;;;22.08;30.42;97878.91;4925698;29;1217;-78
2023/08/24 12:40:44;;;;;;;;;;;;;;;22.28;29.76;97882.34;4958457;29;845;-78
2023/08/24 12:43:10;;;;;;;;;;;;;;;22.05;29.72;97874.91;4958315;29;964;-79
2023/08/24 12:45:37;;;;;;;;;;;;;;;21.81;30.17;97863.09;4943943;28;1910;-78
2023/08/24 12:48:03;;;;;;;;;;;;;;;22.18;29.36;97855.13;4977561;28;951;-78
2023/08/24 12:50:29;;;;;;;;;;;;;;;22.20;29.12;97846.16;4960188;28;895;-77
2023/08/24 12:52:55;;;;;;;;;;;;;;;21.87;29.68;97852.00;4960786;28;951;-79
2023/08/24 12:55:20;;;;;;;;;;;;;;;22.02;29.31;97852.34;4959388;28;1102;-78